createdAt,value
2019-03-15T00:00:27.891Z,52.80
2019-03-15T00:01:27.840Z,52.80
2019-03-15T00:02:27.823Z,52.69
2019-03-15T00:03:27.817Z,52.80
2019-03-15T00:04:27.803Z,52.80
2019-03-15T00:05:27.797Z,52.80
2019-03-15T00:06:27.820Z,52.80
2019-03-15T00:07:27.772Z,52.80
2019-03-15T00:08:27.760Z,52.80
2019-03-15T00:09:27.755Z,52.80
2019-03-15T00:10:27.739Z,52.80
2019-03-15T00:11:27.734Z,52.80
2019-03-15T00:12:27.761Z,52.80
2019-03-15T00:13:27.712Z,52.80
2019-03-15T00:14:27.693Z,52.80
2019-03-15T00:15:27.690Z,52.80
2019-03-15T00:16:27.678Z,52.80
2019-03-15T00:17:27.663Z,52.80
2019-03-15T00:18:27.865Z,52.80
2019-03-15T00:19:27.642Z,52.80
2019-03-15T00:20:27.635Z,52.80
2019-03-15T00:21:27.646Z,52.80
2019-03-15T00:22:27.607Z,52.80
2019-03-15T00:23:27.595Z,52.80
2019-03-15T00:24:27.877Z,52.80
2019-03-15T00:25:27.580Z,52.80
2019-03-15T00:26:27.566Z,52.80
2019-03-15T00:27:27.559Z,52.80
2019-03-15T00:28:27.547Z,52.80
2019-03-15T00:29:27.538Z,52.80
2019-03-15T00:30:27.555Z,52.80
2019-03-15T00:31:27.532Z,52.80
2019-03-15T00:32:27.503Z,52.80
2019-03-15T00:33:27.495Z,52.80
2019-03-15T00:34:27.479Z,52.80
2019-03-15T00:35:27.561Z,52.80
2019-03-15T00:36:27.483Z,52.80
2019-03-15T00:37:27.449Z,52.80
2019-03-15T00:38:27.438Z,52.80
2019-03-15T00:39:27.427Z,52.80
2019-03-15T00:40:27.445Z,52.80
2019-03-15T00:41:27.452Z,52.80
2019-03-15T00:42:27.397Z,52.80
2019-03-15T00:43:27.386Z,52.80
2019-03-15T00:44:27.388Z,52.80
2019-03-15T00:45:27.358Z,52.80
2019-03-15T00:46:27.393Z,52.89
2019-03-15T00:47:27.337Z,52.80
2019-03-15T00:48:27.334Z,52.89
2019-03-15T00:49:27.316Z,52.80
2019-03-15T00:50:27.312Z,52.89
2019-03-15T00:51:27.297Z,52.80
2019-03-15T00:52:27.311Z,52.89
2019-03-15T00:53:27.276Z,52.89
2019-03-15T00:54:27.283Z,52.89
2019-03-15T00:55:27.252Z,52.89
2019-03-15T00:56:27.244Z,52.89
2019-03-15T00:57:27.241Z,52.89
2019-03-15T00:58:27.292Z,52.89
2019-03-15T00:59:27.208Z,52.89
2019-03-15T01:00:27.203Z,53.00
2019-03-15T01:01:27.189Z,52.89
2019-03-15T01:02:27.178Z,53.00
2019-03-15T01:03:27.168Z,53.00
2019-03-15T01:04:27.194Z,53.00
2019-03-15T01:05:27.144Z,53.00
2019-03-15T01:06:27.138Z,53.00
2019-03-15T01:07:27.136Z,53.00
2019-03-15T01:08:27.141Z,53.00
2019-03-15T01:09:27.107Z,53.02
2019-03-15T01:10:27.092Z,53.02
2019-03-15T01:11:27.085Z,53.02
2019-03-15T01:12:27.074Z,53.02
2019-03-15T01:13:27.067Z,53.02
2019-03-15T01:14:27.110Z,53.02
2019-03-15T01:15:27.036Z,53.02
2019-03-15T01:16:27.025Z,53.02
2019-03-15T01:17:27.030Z,53.02
2019-03-15T01:18:27.008Z,53.12
2019-03-15T01:19:26.995Z,53.12
2019-03-15T01:20:27.012Z,53.12
2019-03-15T01:21:26.970Z,53.12
2019-03-15T01:22:26.959Z,53.12
2019-03-15T01:23:26.973Z,53.12
2019-03-15T01:24:26.948Z,53.12
2019-03-15T01:25:26.933Z,53.12
2019-03-15T01:26:27.221Z,53.12
2019-03-15T01:27:26.904Z,53.12
2019-03-15T01:28:26.900Z,53.12
2019-03-15T01:29:26.888Z,53.12
2019-03-15T01:30:26.882Z,53.12
2019-03-15T01:31:26.862Z,53.12
2019-03-15T01:32:26.885Z,53.12
2019-03-15T01:33:26.846Z,53.12
2019-03-15T01:34:26.833Z,53.22
2019-03-15T01:35:26.819Z,53.12
2019-03-15T01:36:26.813Z,53.22
2019-03-15T01:37:26.832Z,53.22
2019-03-15T01:38:26.784Z,53.22
2019-03-15T01:39:26.781Z,53.22
2019-03-15T01:40:26.767Z,53.22
2019-03-15T01:41:26.753Z,53.22
2019-03-15T01:42:26.749Z,53.22
2019-03-15T01:43:26.766Z,53.22
2019-03-15T01:44:26.723Z,53.22
2019-03-15T01:45:26.708Z,53.22
2019-03-15T01:46:26.711Z,53.22
2019-03-15T01:47:26.687Z,53.22
2019-03-15T01:48:26.677Z,53.22
2019-03-15T01:49:26.698Z,53.22
2019-03-15T01:50:26.679Z,53.22
2019-03-15T01:51:26.651Z,53.22
2019-03-15T01:52:26.665Z,53.22
2019-03-15T01:53:26.625Z,53.22
2019-03-15T01:54:26.615Z,53.22
2019-03-15T01:55:26.605Z,53.22
2019-03-15T01:56:26.619Z,53.22
2019-03-15T01:57:26.584Z,53.32
2019-03-15T01:58:26.574Z,53.22
2019-03-15T01:59:26.565Z,53.32
2019-03-15T02:00:26.550Z,53.32
2019-03-15T02:01:26.572Z,53.32
2019-03-15T02:02:26.531Z,53.32
2019-03-15T02:03:26.539Z,53.32
2019-03-15T02:04:26.504Z,53.32
2019-03-15T02:05:26.494Z,53.32
2019-03-15T02:06:26.531Z,53.32
2019-03-15T02:07:26.470Z,53.32
2019-03-15T02:08:26.757Z,53.32
2019-03-15T02:09:26.453Z,53.32
2019-03-15T02:10:26.442Z,53.32
2019-03-15T02:11:26.442Z,53.42
2019-03-15T02:12:26.693Z,53.32
2019-03-15T02:13:26.416Z,53.32
2019-03-15T02:14:27.223Z,53.42
2019-03-15T02:15:26.391Z,53.42
2019-03-15T02:16:26.375Z,53.32
2019-03-15T02:17:26.829Z,53.42
2019-03-15T02:18:26.381Z,53.42
2019-03-15T02:19:26.351Z,53.42
2019-03-15T02:20:27.343Z,53.42
2019-03-15T02:21:26.330Z,53.42
2019-03-15T02:22:26.313Z,53.42
2019-03-15T02:23:26.347Z,53.42
2019-03-15T02:24:26.294Z,53.42
2019-03-15T02:25:26.278Z,53.42
2019-03-15T02:26:26.270Z,53.42
2019-03-15T02:27:26.257Z,53.42
2019-03-15T02:28:26.276Z,53.42
2019-03-15T02:29:26.239Z,53.42
2019-03-15T02:30:26.234Z,53.45
2019-03-15T02:31:26.216Z,53.45
2019-03-15T02:32:26.209Z,53.42
2019-03-15T02:33:26.259Z,53.45
2019-03-15T02:34:27.340Z,53.55
2019-03-15T02:35:26.179Z,53.45
2019-03-15T02:36:26.169Z,53.45
2019-03-15T02:37:26.161Z,53.45
2019-03-15T02:38:27.048Z,53.45
2019-03-15T02:39:26.164Z,53.55
2019-03-15T02:40:26.123Z,53.55
2019-03-15T02:41:26.104Z,53.45
2019-03-15T02:42:26.532Z,53.45
2019-03-15T02:43:26.084Z,53.45
2019-03-15T02:44:26.077Z,53.55
2019-03-15T02:45:26.104Z,53.55
2019-03-15T02:46:26.080Z,53.55
2019-03-15T02:47:26.047Z,53.55
2019-03-15T02:48:26.038Z,53.55
2019-03-15T02:49:26.026Z,53.55
2019-03-15T02:50:26.007Z,53.55
2019-03-15T02:51:26.040Z,53.55
2019-03-15T02:52:25.998Z,53.55
2019-03-15T02:53:25.980Z,53.55
2019-03-15T02:54:27.309Z,53.55
2019-03-15T02:55:25.959Z,53.55
2019-03-15T02:56:25.948Z,53.55
2019-03-15T02:57:25.974Z,53.55
2019-03-15T02:58:25.924Z,53.55
2019-03-15T02:59:25.933Z,53.55
2019-03-15T03:00:26.210Z,53.55
2019-03-15T03:01:25.894Z,53.55
2019-03-15T03:02:27.671Z,53.55
2019-03-15T03:03:25.908Z,53.55
2019-03-15T03:04:25.864Z,53.55
2019-03-15T03:05:25.863Z,53.65
2019-03-15T03:06:25.842Z,53.55
2019-03-15T03:07:26.148Z,53.55
2019-03-15T03:08:25.849Z,53.65
2019-03-15T03:09:25.827Z,53.65
2019-03-15T03:10:25.798Z,53.55
2019-03-15T03:11:25.784Z,53.65
2019-03-15T03:12:25.774Z,53.65
2019-03-15T03:13:25.899Z,53.65
2019-03-15T03:14:25.753Z,53.65
2019-03-15T03:15:25.749Z,53.65
2019-03-15T03:16:25.738Z,53.65
2019-03-15T03:17:25.722Z,53.65
2019-03-15T03:18:25.720Z,53.65
2019-03-15T03:19:25.749Z,53.65
2019-03-15T03:20:25.887Z,53.65
2019-03-15T03:21:25.676Z,53.65
2019-03-15T03:22:25.692Z,53.65
2019-03-15T03:23:25.658Z,53.65
2019-03-15T03:24:25.677Z,53.65
2019-03-15T03:25:25.634Z,53.75
2019-03-15T03:26:25.654Z,53.75
2019-03-15T03:27:25.615Z,53.75
2019-03-15T03:28:25.599Z,53.65
2019-03-15T03:29:25.631Z,53.75
2019-03-15T03:30:25.607Z,53.75
2019-03-15T03:31:25.624Z,53.75
2019-03-15T03:32:25.636Z,53.75
2019-03-15T03:33:25.548Z,53.75
2019-03-15T03:34:25.553Z,53.75
2019-03-15T03:35:25.539Z,53.75
2019-03-15T03:36:25.519Z,53.75
2019-03-15T03:37:25.554Z,53.75
2019-03-15T03:38:25.501Z,53.75
2019-03-15T03:39:25.484Z,53.75
2019-03-15T03:40:25.478Z,53.85
2019-03-15T03:41:25.477Z,53.75
2019-03-15T03:42:25.454Z,53.85
2019-03-15T03:43:25.475Z,53.75
2019-03-15T03:44:25.432Z,53.75
2019-03-15T03:45:25.423Z,53.85
2019-03-15T03:46:25.406Z,53.75
2019-03-15T03:47:25.399Z,53.75
2019-03-15T03:48:25.420Z,53.75
2019-03-15T03:49:25.379Z,53.75
2019-03-15T03:50:25.371Z,53.75
2019-03-15T03:51:25.361Z,53.75
2019-03-15T03:52:25.341Z,53.75
2019-03-15T03:53:25.364Z,53.75
2019-03-15T03:54:25.326Z,53.85
2019-03-15T03:55:25.616Z,53.75
2019-03-15T03:56:25.308Z,53.85
2019-03-15T03:57:25.296Z,53.75
2019-03-15T03:58:25.285Z,53.75
2019-03-15T03:59:25.272Z,53.85
2019-03-15T04:00:25.265Z,53.85
2019-03-15T04:01:25.410Z,53.75
2019-03-15T04:02:25.237Z,53.85
2019-03-15T04:03:25.224Z,53.85
2019-03-15T04:04:25.225Z,53.85
2019-03-15T04:05:25.210Z,53.85
2019-03-15T04:06:25.191Z,53.85
2019-03-15T04:07:25.213Z,53.85
2019-03-15T04:08:25.178Z,53.85
2019-03-15T04:09:25.166Z,53.85
2019-03-15T04:10:25.155Z,53.85
2019-03-15T04:11:25.143Z,53.85
2019-03-15T04:12:25.425Z,53.85
2019-03-15T04:13:25.122Z,53.85
2019-03-15T04:14:25.121Z,53.85
2019-03-15T04:15:25.147Z,53.85
2019-03-15T04:16:25.089Z,53.85
2019-03-15T04:17:25.142Z,53.85
2019-03-15T04:18:25.111Z,53.85
2019-03-15T04:19:25.054Z,53.85
2019-03-15T04:20:25.051Z,53.85
2019-03-15T04:21:25.039Z,53.85
2019-03-15T04:22:25.022Z,53.85
2019-03-15T04:23:25.017Z,53.95
2019-03-15T04:24:25.040Z,53.88
2019-03-15T04:25:24.994Z,53.85
2019-03-15T04:26:24.976Z,53.85
2019-03-15T04:27:24.972Z,53.88
2019-03-15T04:28:24.984Z,53.88
2019-03-15T04:29:24.949Z,53.97
2019-03-15T04:30:24.977Z,53.88
2019-03-15T04:31:24.926Z,53.97
2019-03-15T04:32:24.918Z,53.97
2019-03-15T04:33:24.902Z,53.97
2019-03-15T04:34:28.136Z,53.97
2019-03-15T04:35:24.885Z,53.97
2019-03-15T04:36:24.898Z,53.95
2019-03-15T04:37:24.864Z,53.97
2019-03-15T04:38:24.857Z,53.97
2019-03-15T04:39:24.844Z,53.88
2019-03-15T04:40:24.834Z,53.88
2019-03-15T04:41:25.120Z,53.88
2019-03-15T04:42:24.902Z,53.88
2019-03-15T04:43:24.797Z,53.88
2019-03-15T04:44:24.791Z,53.97
2019-03-15T04:45:24.773Z,53.97
2019-03-15T04:46:24.766Z,53.97
2019-03-15T04:47:24.790Z,53.97
2019-03-15T04:48:24.748Z,53.97
2019-03-15T04:49:24.738Z,53.88
2019-03-15T04:50:24.722Z,53.88
2019-03-15T04:51:24.722Z,53.88
2019-03-15T04:52:24.739Z,53.97
2019-03-15T04:53:24.719Z,53.97
2019-03-15T04:54:24.685Z,53.97
2019-03-15T04:55:24.668Z,53.97
2019-03-15T04:56:24.657Z,53.97
2019-03-15T04:57:24.653Z,53.97
2019-03-15T04:58:24.637Z,53.97
2019-03-15T04:59:24.667Z,53.97
2019-03-15T05:00:24.621Z,53.97
2019-03-15T05:01:24.629Z,53.97
2019-03-15T05:02:24.596Z,53.97
2019-03-15T05:03:24.589Z,53.97
2019-03-15T05:04:24.579Z,53.97
2019-03-15T05:05:24.598Z,53.97
2019-03-15T05:06:24.557Z,53.97
2019-03-15T05:07:24.546Z,53.88
2019-03-15T05:08:24.539Z,53.97
2019-03-15T05:09:24.517Z,53.97
2019-03-15T05:10:24.566Z,53.88
2019-03-15T05:11:24.508Z,53.88
2019-03-15T05:12:24.494Z,53.97
2019-03-15T05:13:24.476Z,53.97
2019-03-15T05:14:24.490Z,53.97
2019-03-15T05:15:24.461Z,53.97
2019-03-15T05:16:24.486Z,53.97
2019-03-15T05:17:24.432Z,53.97
2019-03-15T05:18:24.423Z,53.97
2019-03-15T05:19:24.414Z,53.97
2019-03-15T05:20:24.405Z,53.97
2019-03-15T05:21:24.393Z,53.97
2019-03-15T05:22:24.406Z,53.97
2019-03-15T05:23:24.368Z,53.97
2019-03-15T05:24:24.407Z,53.97
2019-03-15T05:25:24.427Z,53.97
2019-03-15T05:26:24.341Z,53.97
2019-03-15T05:27:24.357Z,53.97
2019-03-15T05:28:24.322Z,53.97
2019-03-15T05:29:24.310Z,53.97
2019-03-15T05:30:24.298Z,53.97
2019-03-15T05:31:24.319Z,53.97
2019-03-15T05:32:24.276Z,53.97
2019-03-15T05:33:24.271Z,53.97
2019-03-15T05:34:24.254Z,53.97
2019-03-15T05:35:24.244Z,53.97
2019-03-15T05:36:24.264Z,53.97
2019-03-15T05:37:24.517Z,53.97
2019-03-15T05:38:24.212Z,53.97
2019-03-15T05:39:24.211Z,53.97
2019-03-15T05:40:24.192Z,53.97
2019-03-15T05:41:24.179Z,53.97
2019-03-15T05:42:24.166Z,53.97
2019-03-15T05:43:24.214Z,53.97
2019-03-15T05:44:24.144Z,53.97
2019-03-15T05:45:24.137Z,53.97
2019-03-15T05:46:24.124Z,53.97
2019-03-15T05:47:24.155Z,53.97
2019-03-15T05:48:24.101Z,53.97
2019-03-15T05:49:24.090Z,53.97
2019-03-15T05:50:24.089Z,53.97
2019-03-15T05:51:24.068Z,53.97
2019-03-15T05:52:24.089Z,53.97
2019-03-15T05:53:24.052Z,53.97
2019-03-15T05:54:24.318Z,53.97
2019-03-15T05:55:24.025Z,53.97
2019-03-15T05:56:24.020Z,53.97
2019-03-15T05:57:24.030Z,53.97
2019-03-15T05:58:23.993Z,53.97
2019-03-15T05:59:23.990Z,53.97
2019-03-15T06:00:24.025Z,53.97
2019-03-15T06:01:23.965Z,53.97
2019-03-15T06:02:23.957Z,53.97
2019-03-15T06:03:23.944Z,53.97
2019-03-15T06:04:23.931Z,53.97
2019-03-15T06:05:23.926Z,54.08
2019-03-15T06:06:23.935Z,53.97
2019-03-15T06:07:23.901Z,53.97
2019-03-15T06:08:27.301Z,54.08
2019-03-15T06:09:24.005Z,54.08
2019-03-15T06:10:23.870Z,53.97
2019-03-15T06:11:23.889Z,53.97
2019-03-15T06:12:23.852Z,53.97
2019-03-15T06:13:24.112Z,53.97
2019-03-15T06:14:23.827Z,54.08
2019-03-15T06:15:23.817Z,54.08
2019-03-15T06:16:23.803Z,54.08
2019-03-15T06:17:23.794Z,54.08
2019-03-15T06:18:23.784Z,53.97
2019-03-15T06:19:23.800Z,53.97
2019-03-15T06:20:23.772Z,54.08
2019-03-15T06:21:23.749Z,54.08
2019-03-15T06:22:23.742Z,53.97
2019-03-15T06:23:23.728Z,54.08
2019-03-15T06:24:23.745Z,54.08
2019-03-15T06:25:23.710Z,54.08
2019-03-15T06:26:23.693Z,53.97
2019-03-15T06:27:23.690Z,54.08
2019-03-15T06:28:23.677Z,54.08
2019-03-15T06:29:23.922Z,54.08
2019-03-15T06:30:23.653Z,54.08
2019-03-15T06:31:23.665Z,54.08
2019-03-15T06:32:23.653Z,54.08
2019-03-15T06:33:23.621Z,54.08
2019-03-15T06:34:23.609Z,54.08
2019-03-15T06:35:23.625Z,54.08
2019-03-15T06:36:23.590Z,54.08
2019-03-15T06:37:23.582Z,54.08
2019-03-15T06:38:23.862Z,54.08
2019-03-15T06:39:23.558Z,54.08
2019-03-15T06:40:23.550Z,54.08
2019-03-15T06:41:23.531Z,54.08
2019-03-15T06:42:23.524Z,54.08
2019-03-15T06:43:23.520Z,54.08
2019-03-15T06:44:23.531Z,54.08
2019-03-15T06:45:23.510Z,54.08
2019-03-15T06:46:23.482Z,54.08
2019-03-15T06:47:23.472Z,54.08
2019-03-15T06:48:23.495Z,54.08
2019-03-15T06:49:23.445Z,54.08
2019-03-15T06:50:23.442Z,54.08
2019-03-15T06:51:23.429Z,54.08
2019-03-15T06:52:23.423Z,54.08
2019-03-15T06:53:23.433Z,54.08
2019-03-15T06:54:23.435Z,54.08
2019-03-15T06:55:23.429Z,54.08
2019-03-15T06:56:23.370Z,54.08
2019-03-15T06:57:23.360Z,54.08
2019-03-15T06:58:23.351Z,54.08
2019-03-15T06:59:23.369Z,54.08
2019-03-15T07:00:23.332Z,54.08
2019-03-15T07:01:24.039Z,54.08
2019-03-15T07:02:23.307Z,54.08
2019-03-15T07:03:23.298Z,54.17
2019-03-15T07:04:23.315Z,54.58
2019-03-15T07:05:23.281Z,54.68
2019-03-15T07:06:23.296Z,54.78
2019-03-15T07:07:23.260Z,54.88
2019-03-15T07:08:23.244Z,54.88
2019-03-15T07:09:23.231Z,54.98
2019-03-15T07:10:23.223Z,55.08
2019-03-15T07:11:23.211Z,55.08
2019-03-15T07:12:23.237Z,54.88
2019-03-15T07:13:23.197Z,54.88
2019-03-15T07:14:23.185Z,54.88
2019-03-15T07:15:23.174Z,54.88
2019-03-15T07:16:23.175Z,54.88
2019-03-15T07:17:23.151Z,54.78
2019-03-15T07:18:23.179Z,54.88
2019-03-15T07:19:27.477Z,54.78
2019-03-15T07:20:24.120Z,54.78
2019-03-15T07:21:23.109Z,54.88
2019-03-15T07:22:23.097Z,54.88
2019-03-15T07:23:23.086Z,54.88
2019-03-15T07:24:25.446Z,54.88
2019-03-15T07:25:23.061Z,54.88
2019-03-15T07:26:23.056Z,54.88
2019-03-15T07:27:23.042Z,54.98
2019-03-15T07:28:23.033Z,54.98
2019-03-15T07:29:23.028Z,55.08
2019-03-15T07:30:23.039Z,55.08
2019-03-15T07:31:22.994Z,55.18
2019-03-15T07:32:22.999Z,55.08
2019-03-15T07:33:23.294Z,55.18
2019-03-15T07:34:22.963Z,55.18
2019-03-15T07:35:22.993Z,55.08
2019-03-15T07:36:22.943Z,55.08
2019-03-15T07:37:22.936Z,55.18
2019-03-15T07:38:22.919Z,55.18
2019-03-15T07:39:22.930Z,55.18
2019-03-15T07:40:22.931Z,55.18
2019-03-15T07:41:25.277Z,55.28
2019-03-15T07:42:22.966Z,55.38
2019-03-15T07:43:22.870Z,55.48
2019-03-15T07:44:22.895Z,55.48
2019-03-15T07:45:22.852Z,55.48
2019-03-15T07:46:22.872Z,55.38
2019-03-15T07:47:22.822Z,55.28
2019-03-15T07:48:23.280Z,55.28
2019-03-15T07:49:22.843Z,55.38
2019-03-15T07:50:22.801Z,55.68
2019-03-15T07:51:22.781Z,55.88
2019-03-15T07:52:22.813Z,55.88
2019-03-15T07:53:22.763Z,55.88
2019-03-15T07:54:23.035Z,55.79
2019-03-15T07:55:22.748Z,55.79
2019-03-15T07:56:22.729Z,55.79
2019-03-15T07:57:22.719Z,55.88
2019-03-15T07:58:22.711Z,55.68
2019-03-15T07:59:22.870Z,55.79
2019-03-15T08:00:22.731Z,55.88
2019-03-15T08:01:22.673Z,55.79
2019-03-15T08:02:22.686Z,55.88
2019-03-15T08:03:22.652Z,55.88
2019-03-15T08:04:22.643Z,55.99
2019-03-15T08:05:22.632Z,55.99
2019-03-15T08:06:34.021Z,55.99
2019-03-15T08:07:35.761Z,55.99
2019-03-15T08:08:23.693Z,55.99
2019-03-15T08:09:22.586Z,55.99
2019-03-15T08:10:22.581Z,55.99
2019-03-15T08:11:22.607Z,55.99
2019-03-15T08:12:22.572Z,56.09
2019-03-15T08:13:22.556Z,56.09
2019-03-15T08:14:22.535Z,56.09
2019-03-15T08:15:22.526Z,56.09
2019-03-15T08:16:22.516Z,56.09
2019-03-15T08:17:22.548Z,55.99
2019-03-15T08:18:22.489Z,55.99
2019-03-15T08:19:22.478Z,55.99
2019-03-15T08:20:22.472Z,55.99
2019-03-15T08:21:22.875Z,55.99
2019-03-15T08:22:22.539Z,55.88
2019-03-15T08:23:22.476Z,55.99
2019-03-15T08:24:22.423Z,55.99
2019-03-15T08:25:22.430Z,55.88
2019-03-15T08:26:22.406Z,55.88
2019-03-15T08:27:22.401Z,55.79
2019-03-15T08:28:22.388Z,55.79
2019-03-15T08:29:22.400Z,55.79
2019-03-15T08:30:22.397Z,55.79
2019-03-15T08:31:23.440Z,55.79
2019-03-15T08:32:22.336Z,55.79
2019-03-15T08:33:22.328Z,55.79
2019-03-15T08:34:22.336Z,55.79
2019-03-15T08:35:24.518Z,55.81
2019-03-15T08:36:22.372Z,55.71
2019-03-15T08:37:22.287Z,55.81
2019-03-15T08:38:22.275Z,55.68
2019-03-15T08:39:22.292Z,55.91
2019-03-15T08:40:25.620Z,55.79
2019-03-15T08:41:22.242Z,55.88
2019-03-15T08:42:22.236Z,55.99
2019-03-15T08:43:22.223Z,55.88
2019-03-15T08:44:22.474Z,55.88
2019-03-15T08:45:22.226Z,55.88
2019-03-15T08:46:22.195Z,55.99
2019-03-15T08:47:22.198Z,56.09
2019-03-15T08:48:22.171Z,56.19
2019-03-15T08:49:22.160Z,56.19
2019-03-15T08:50:24.559Z,56.09
2019-03-15T08:51:22.137Z,56.09
2019-03-15T08:52:22.128Z,56.09
2019-03-15T08:53:22.117Z,56.09
2019-03-15T08:54:22.111Z,56.09
2019-03-15T08:55:22.094Z,56.09
2019-03-15T08:56:22.114Z,56.19
2019-03-15T08:57:22.075Z,56.19
2019-03-15T08:58:22.600Z,56.09
2019-03-15T08:59:22.051Z,56.09
2019-03-15T09:00:22.040Z,56.09
2019-03-15T09:01:23.858Z,56.09
2019-03-15T09:02:22.017Z,56.19
2019-03-15T09:03:27.990Z,56.19
2019-03-15T09:04:23.000Z,56.09
2019-03-15T09:05:21.984Z,55.38
2019-03-15T09:06:21.980Z,55.38
2019-03-15T09:07:22.012Z,55.18
2019-03-15T09:08:21.981Z,55.08
2019-03-15T09:09:21.947Z,55.28
2019-03-15T09:10:23.909Z,55.48
2019-03-15T09:11:21.919Z,55.58
2019-03-15T09:12:21.911Z,55.68
2019-03-15T09:13:21.927Z,55.79
2019-03-15T09:14:21.884Z,55.68
2019-03-15T09:15:21.887Z,55.79
2019-03-15T09:16:21.872Z,55.79
2019-03-15T09:17:21.968Z,55.79
2019-03-15T09:18:21.857Z,55.79
2019-03-15T09:19:21.832Z,55.79
2019-03-15T09:20:21.820Z,55.79
2019-03-15T09:21:21.834Z,55.81
2019-03-15T09:22:21.800Z,55.99
2019-03-15T09:23:21.842Z,55.99
2019-03-15T09:24:21.813Z,55.88
2019-03-15T09:25:21.772Z,55.99
2019-03-15T09:26:21.764Z,55.88
2019-03-15T09:27:21.751Z,56.09
2019-03-15T09:28:21.756Z,55.99
2019-03-15T09:29:21.761Z,55.99
2019-03-15T09:30:24.121Z,55.99
2019-03-15T09:31:21.725Z,55.99
2019-03-15T09:32:21.690Z,55.99
2019-03-15T09:33:21.679Z,55.88
2019-03-15T09:34:21.959Z,55.88
2019-03-15T09:35:21.665Z,55.88
2019-03-15T09:36:21.652Z,55.88
2019-03-15T09:37:21.639Z,55.88
2019-03-15T09:38:21.631Z,55.88
2019-03-15T09:39:21.622Z,55.88
2019-03-15T09:40:21.654Z,55.88
2019-03-15T09:41:32.076Z,55.88
2019-03-15T09:42:22.585Z,55.88
2019-03-15T09:43:21.577Z,55.88
2019-03-15T09:44:21.573Z,55.88
2019-03-15T09:45:21.613Z,55.88
2019-03-15T09:46:21.542Z,55.88
2019-03-15T09:47:21.551Z,55.88
2019-03-15T09:48:21.516Z,55.88
2019-03-15T09:49:21.507Z,55.79
2019-03-15T09:50:33.305Z,55.79
2019-03-15T09:51:22.536Z,55.68
2019-03-15T09:52:21.480Z,55.68
2019-03-15T09:53:21.465Z,55.68
2019-03-15T09:54:21.467Z,55.68
2019-03-15T09:55:32.231Z,55.88
2019-03-15T09:56:22.428Z,55.79
2019-03-15T09:57:21.447Z,55.79
2019-03-15T09:58:21.410Z,55.68
2019-03-15T09:59:21.397Z,55.68
2019-03-15T10:00:21.447Z,55.79
2019-03-15T10:01:34.407Z,55.68
2019-03-15T10:02:30.091Z,55.79
2019-03-15T10:03:22.770Z,55.79
2019-03-15T10:04:21.349Z,55.79
2019-03-15T10:05:21.335Z,55.79
2019-03-15T10:06:21.324Z,55.68
2019-03-15T10:07:21.354Z,55.79
2019-03-15T10:08:23.575Z,55.79
2019-03-15T10:09:21.293Z,55.76
2019-03-15T10:10:21.282Z,55.76
2019-03-15T10:11:21.267Z,55.76
2019-03-15T10:12:21.259Z,55.76
2019-03-15T10:13:21.252Z,55.76
2019-03-15T10:14:21.536Z,55.76
2019-03-15T10:15:21.229Z,55.76
2019-03-15T10:16:21.214Z,55.76
2019-03-15T10:17:23.119Z,55.76
2019-03-15T10:18:21.203Z,55.66
2019-03-15T10:19:21.187Z,55.66
2019-03-15T10:20:21.226Z,55.66
2019-03-15T10:21:21.159Z,55.66
2019-03-15T10:22:21.164Z,55.66
2019-03-15T10:23:21.140Z,55.66
2019-03-15T10:24:21.136Z,55.66
2019-03-15T10:25:21.116Z,55.76
2019-03-15T10:26:21.150Z,55.76
2019-03-15T10:27:21.123Z,55.76
2019-03-15T10:28:21.091Z,55.76
2019-03-15T10:29:21.192Z,55.76
2019-03-15T10:30:21.065Z,55.76
2019-03-15T10:31:21.089Z,55.96
2019-03-15T10:32:21.040Z,55.76
2019-03-15T10:33:21.030Z,55.66
2019-03-15T10:34:21.029Z,55.66
2019-03-15T10:35:21.014Z,55.76
2019-03-15T10:36:21.041Z,55.76
2019-03-15T10:37:20.987Z,55.66
2019-03-15T10:38:20.978Z,56.06
2019-03-15T10:39:20.969Z,55.66
2019-03-15T10:40:20.967Z,55.76
2019-03-15T10:41:20.948Z,55.76
2019-03-15T10:42:20.983Z,55.76
2019-03-15T10:43:20.928Z,55.76
2019-03-15T10:44:20.992Z,55.76
2019-03-15T10:45:20.909Z,55.76
2019-03-15T10:46:20.895Z,55.76
2019-03-15T10:47:20.884Z,55.66
2019-03-15T10:48:25.590Z,55.76
2019-03-15T10:49:20.866Z,55.76
2019-03-15T10:50:20.868Z,55.76
2019-03-15T10:51:20.839Z,55.66
2019-03-15T10:52:20.826Z,55.76
2019-03-15T10:53:20.862Z,55.76
2019-03-15T10:54:20.804Z,55.76
2019-03-15T10:55:21.047Z,55.86
2019-03-15T10:56:20.788Z,55.86
2019-03-15T10:57:20.780Z,55.96
2019-03-15T10:58:20.761Z,55.96
2019-03-15T10:59:20.786Z,55.96
2019-03-15T11:00:20.740Z,56.06
2019-03-15T11:01:20.733Z,56.16
2019-03-15T11:02:20.722Z,55.86
2019-03-15T11:03:20.714Z,55.86
2019-03-15T11:04:20.745Z,55.86
2019-03-15T11:05:20.690Z,55.86
2019-03-15T11:06:20.682Z,55.86
2019-03-15T11:07:20.671Z,55.86
2019-03-15T11:08:23.987Z,55.96
2019-03-15T11:09:20.644Z,55.86
2019-03-15T11:10:20.699Z,55.76
2019-03-15T11:11:20.625Z,55.76
2019-03-15T11:12:20.639Z,55.86
2019-03-15T11:13:20.629Z,55.86
2019-03-15T11:14:20.600Z,55.86
2019-03-15T11:15:20.585Z,55.86
2019-03-15T11:16:20.613Z,55.86
2019-03-15T11:17:20.563Z,55.96
2019-03-15T11:18:20.551Z,56.06
2019-03-15T11:19:20.536Z,56.06
2019-03-15T11:20:20.526Z,56.06
2019-03-15T11:21:20.513Z,56.16
2019-03-15T11:22:20.534Z,56.06
2019-03-15T11:23:20.514Z,55.76
2019-03-15T11:24:20.485Z,55.66
2019-03-15T11:25:20.470Z,55.66
2019-03-15T11:26:20.464Z,55.86
2019-03-15T11:27:20.484Z,55.96
2019-03-15T11:28:20.445Z,55.96
2019-03-15T11:29:20.430Z,56.16
2019-03-15T11:30:20.427Z,56.16
2019-03-15T11:31:20.407Z,56.09
2019-03-15T11:32:20.395Z,56.09
2019-03-15T11:33:20.438Z,55.99
2019-03-15T11:34:20.375Z,56.09
2019-03-15T11:35:21.499Z,56.09
2019-03-15T11:36:20.362Z,56.19
2019-03-15T11:37:20.346Z,56.19
2019-03-15T11:38:20.361Z,56.19
2019-03-15T11:39:20.318Z,56.29
2019-03-15T11:40:20.313Z,56.29
2019-03-15T11:41:20.337Z,56.29
2019-03-15T11:42:20.288Z,56.29
2019-03-15T11:43:20.307Z,56.29
2019-03-15T11:44:20.266Z,56.29
2019-03-15T11:45:20.301Z,56.29
2019-03-15T11:46:20.259Z,56.29
2019-03-15T11:47:20.281Z,56.29
2019-03-15T11:48:20.219Z,56.29
2019-03-15T11:49:20.209Z,56.29
2019-03-15T11:50:20.196Z,56.29
2019-03-15T11:51:20.222Z,56.29
2019-03-15T11:52:20.179Z,56.29
2019-03-15T11:53:20.170Z,56.29
2019-03-15T11:54:20.154Z,56.29
2019-03-15T11:55:20.181Z,56.29
2019-03-15T11:56:26.885Z,56.09
2019-03-15T11:57:21.128Z,56.09
2019-03-15T11:58:20.114Z,56.09
2019-03-15T11:59:20.151Z,55.99
2019-03-15T12:00:20.100Z,55.88
2019-03-15T12:01:20.085Z,55.79
2019-03-15T12:02:20.067Z,55.88
2019-03-15T12:03:20.061Z,55.79
2019-03-15T12:04:20.051Z,55.79
2019-03-15T12:05:20.077Z,55.86
2019-03-15T12:06:20.031Z,55.86
2019-03-15T12:07:20.023Z,55.86
2019-03-15T12:08:20.002Z,55.76
2019-03-15T12:09:20.006Z,55.66
2019-03-15T12:10:19.990Z,55.96
2019-03-15T12:11:20.009Z,56.06
2019-03-15T12:12:21.696Z,56.26
2019-03-15T12:13:19.951Z,56.26
2019-03-15T12:14:19.936Z,56.26
2019-03-15T12:15:19.951Z,56.26
2019-03-15T12:16:19.921Z,56.16
2019-03-15T12:17:19.952Z,56.13
2019-03-15T12:18:19.905Z,56.23
2019-03-15T12:19:19.908Z,56.13
2019-03-15T12:20:19.873Z,55.91
2019-03-15T12:21:19.864Z,55.80
2019-03-15T12:22:19.851Z,55.60
2019-03-15T12:23:19.868Z,55.28
2019-03-15T12:24:19.828Z,55.08
2019-03-15T12:25:19.819Z,54.95
2019-03-15T12:26:19.812Z,54.65
2019-03-15T12:27:19.796Z,54.45
2019-03-15T12:28:20.004Z,54.45
2019-03-15T12:29:19.779Z,54.22
2019-03-15T12:30:19.766Z,54.02
2019-03-15T12:31:19.764Z,53.82
2019-03-15T12:32:19.769Z,53.82
2019-03-15T12:33:19.764Z,53.59
2019-03-15T12:34:19.717Z,53.50
2019-03-15T12:35:19.718Z,53.39
2019-03-15T12:36:19.703Z,53.30
2019-03-15T12:37:19.692Z,53.19
2019-03-15T12:38:19.974Z,53.09
2019-03-15T12:39:19.671Z,53.09
2019-03-15T12:40:19.655Z,53.00
2019-03-15T12:41:19.651Z,52.97
2019-03-15T12:42:19.634Z,52.87
2019-03-15T12:43:19.621Z,52.77
2019-03-15T12:44:19.900Z,52.77
2019-03-15T12:45:19.602Z,52.77
2019-03-15T12:46:19.592Z,52.77
2019-03-15T12:47:19.593Z,52.77
2019-03-15T12:48:19.588Z,52.77
2019-03-15T12:49:19.557Z,52.77
2019-03-15T12:50:19.595Z,52.77
2019-03-15T12:51:31.669Z,52.67
2019-03-15T12:52:20.860Z,52.77